createdAt,value
2018-11-22T12:16:48.748Z,14.70
2018-11-22T12:19:17.024Z,14.33
2018-11-22T12:21:45.379Z,14.17
2018-11-22T12:24:13.948Z,14.73
2018-11-22T12:26:42.221Z,17.23
2018-11-22T12:29:10.708Z,14.30
2018-11-22T12:31:39.316Z,15.17
2018-11-22T12:34:13.045Z,16.10
2018-11-22T12:37:00.681Z,15.20
2018-11-22T12:39:29.236Z,15.80
2018-11-22T12:41:57.772Z,13.80
2018-11-22T12:44:26.153Z,14.60
2018-11-22T12:46:54.512Z,15.40
2018-11-22T12:49:23.152Z,16.95
2018-11-22T12:51:51.548Z,16.30
2018-11-22T12:54:20.184Z,16.10
2018-11-22T12:56:48.840Z,15.63
2018-11-22T12:59:17.451Z,15.83
2018-11-22T13:01:46.041Z,16.20
2018-11-22T13:04:14.577Z,15.03
2018-11-22T13:06:42.854Z,14.53
2018-11-22T13:09:11.154Z,15.87
2018-11-22T13:11:39.412Z,16.90
2018-11-22T13:14:07.685Z,14.67
2018-11-22T13:16:36.265Z,17.73
2018-11-22T13:19:04.839Z,15.72
2018-11-22T13:21:33.499Z,17.43
2018-11-22T13:24:01.824Z,16.33
2018-11-22T13:26:30.664Z,16.50
2018-11-22T13:28:59.340Z,16.47
2018-11-22T13:31:27.969Z,16.25
2018-11-22T13:33:56.716Z,15.35
2018-11-22T13:36:25.099Z,17.17
2018-11-22T13:38:53.409Z,14.57
2018-11-22T13:41:21.703Z,15.90
2018-11-22T13:43:49.986Z,14.27
2018-11-22T13:46:18.268Z,15.60
2018-11-22T13:48:46.708Z,15.37
2018-11-22T13:51:15.205Z,15.03
2018-11-22T13:53:43.492Z,15.70
2018-11-22T13:56:11.757Z,16.53
2018-11-22T13:58:40.020Z,15.60
2018-11-22T14:01:08.486Z,14.30
2018-11-22T14:03:37.001Z,13.50
2018-11-22T14:06:05.574Z,15.55
2018-11-22T14:08:34.649Z,16.17
2018-11-22T14:11:03.184Z,15.17
2018-11-22T14:13:31.685Z,17.00
2018-11-22T14:16:00.190Z,17.37
2018-11-22T14:18:28.484Z,16.17
2018-11-22T14:20:56.744Z,14.67
2018-11-22T14:23:25.370Z,14.40
2018-11-22T14:25:53.685Z,14.23
2018-11-22T14:28:22.977Z,17.65
2018-11-22T14:30:51.534Z,16.63
2018-11-22T14:33:20.067Z,13.97
2018-11-22T14:35:48.646Z,16.70
2018-11-22T14:38:17.050Z,17.43
2018-11-22T14:40:45.378Z,16.13
2018-11-22T14:43:13.944Z,18.52
2018-11-22T14:45:42.277Z,18.70
2018-11-22T14:48:10.853Z,18.20
2018-11-22T14:50:41.502Z,18.82
2018-11-22T14:53:13.334Z,18.87
2018-11-22T14:55:42.205Z,18.50
2018-11-22T14:58:11.403Z,16.47
2018-11-22T15:00:40.018Z,18.33
2018-11-22T15:03:08.696Z,19.30
2018-11-22T15:05:37.024Z,17.97
2018-11-22T15:08:05.748Z,19.67
2018-11-22T15:10:34.098Z,18.23
2018-11-22T15:13:03.001Z,19.90
2018-11-22T15:15:31.725Z,20.00
2018-11-22T15:18:00.607Z,19.12
2018-11-22T15:20:29.158Z,18.73
2018-11-22T15:22:57.672Z,18.90
2018-11-22T15:25:27.670Z,20.10
2018-11-22T15:27:56.135Z,22.10
2018-11-22T15:30:26.283Z,19.80
2018-11-22T15:32:55.043Z,21.00
2018-11-22T15:35:25.153Z,20.37
2018-11-22T15:37:54.126Z,21.50
2018-11-22T15:40:23.652Z,23.00
2018-11-22T15:42:53.621Z,22.00
2018-11-22T15:45:23.736Z,21.33
2018-11-22T15:47:52.048Z,22.23
2018-11-22T15:50:22.014Z,21.70
2018-11-22T15:52:50.320Z,22.10
2018-11-22T15:55:21.120Z,19.87
2018-11-22T15:57:48.979Z,20.53
2018-11-22T16:00:20.661Z,20.70
2018-11-22T16:02:49.531Z,21.07
2018-11-22T16:05:18.304Z,22.03
2018-11-22T16:07:46.860Z,22.90
2018-11-22T16:10:18.276Z,21.90
2018-11-22T16:12:48.005Z,20.83
2018-11-22T16:15:21.165Z,18.40
2018-11-22T16:17:49.734Z,19.30
2018-11-22T16:20:18.340Z,18.93
2018-11-22T16:22:46.636Z,21.30
2018-11-22T16:25:15.224Z,18.43
2018-11-22T16:27:43.540Z,20.77
2018-11-22T16:30:15.435Z,20.67
2018-11-22T16:32:44.488Z,20.08
2018-11-22T16:35:14.231Z,19.17
2018-11-22T16:37:43.347Z,18.25
2018-11-22T16:40:13.752Z,20.57
2018-11-22T16:42:43.060Z,20.70
2018-11-22T16:45:18.043Z,21.93
2018-11-22T16:47:46.672Z,21.10
2018-11-22T16:50:16.132Z,18.60
2018-11-22T16:52:44.472Z,20.97
2018-11-22T16:55:13.001Z,19.73
2018-11-22T16:57:42.358Z,18.90
2018-11-22T17:00:13.902Z,19.70
2018-11-22T17:02:42.368Z,18.73
2018-11-22T17:05:11.057Z,21.53
2018-11-22T17:07:39.379Z,19.43
2018-11-22T17:10:09.285Z,19.70
2018-11-22T17:12:37.568Z,20.27
2018-11-22T17:15:08.185Z,21.43
2018-11-22T17:17:36.610Z,22.03
2018-11-22T17:20:05.877Z,22.90
2018-11-22T17:22:34.485Z,21.13
2018-11-22T17:25:04.278Z,22.27
2018-11-22T17:27:32.849Z,23.00
2018-11-22T17:30:01.183Z,21.90
2018-11-22T17:32:29.732Z,22.33
2018-11-22T17:34:58.045Z,22.07
2018-11-22T17:37:26.401Z,19.00
2018-11-22T17:39:54.701Z,21.50
2018-11-22T17:42:23.061Z,20.60
2018-11-22T17:44:51.410Z,20.80
2018-11-22T17:47:20.026Z,20.97
2018-11-22T17:49:48.673Z,22.47
2018-11-22T17:52:17.228Z,22.87
2018-11-22T17:54:45.522Z,22.00
2018-11-22T17:57:14.110Z,23.12
2018-11-22T17:59:43.713Z,23.42
2018-11-22T18:02:11.989Z,21.90
2018-11-22T18:04:40.378Z,21.20
2018-11-22T18:07:08.670Z,21.73
2018-11-22T18:09:36.994Z,22.20
2018-11-22T18:12:06.034Z,22.43
2018-11-22T18:14:34.337Z,22.30
2018-11-22T18:22:01.966Z,22.52
2018-11-22T18:24:30.351Z,22.97
2018-11-22T18:26:58.916Z,20.25
2018-11-22T18:29:27.201Z,23.07
2018-11-22T18:31:55.516Z,23.80
2018-11-22T18:34:24.048Z,23.67
2018-11-22T18:36:52.363Z,24.50
2018-11-22T18:39:20.918Z,22.63
2018-11-22T18:41:49.181Z,22.83
2018-11-22T18:44:17.841Z,24.37
2018-11-22T18:46:46.284Z,26.00
2018-11-22T18:49:14.809Z,25.43
2018-11-22T18:51:43.397Z,23.93
2018-11-22T18:54:12.001Z,22.48
2018-11-22T18:56:40.465Z,25.83
2018-11-22T18:59:09.101Z,25.90
2018-11-22T19:01:37.735Z,27.00
2018-11-22T19:04:06.347Z,26.00
2018-11-22T19:06:35.329Z,25.80
2018-11-22T19:09:04.370Z,27.30
2018-11-22T19:11:33.324Z,25.50
2018-11-22T19:14:02.189Z,27.55
2018-11-22T19:16:31.023Z,26.67
2018-11-22T19:18:59.600Z,29.48
2018-11-22T19:21:28.091Z,28.80
2018-11-22T19:23:56.705Z,30.12
2018-11-22T19:26:25.014Z,29.60
2018-11-22T19:28:53.355Z,28.50
2018-11-22T19:31:21.741Z,26.57
2018-11-22T19:33:50.220Z,29.00
2018-11-22T19:36:18.816Z,29.23
2018-11-22T19:38:47.680Z,30.12
2018-11-22T19:41:16.234Z,31.30
2018-11-22T19:43:44.678Z,29.73
2018-11-22T19:46:12.945Z,30.67
2018-11-22T19:48:41.513Z,27.80
2018-11-22T19:51:09.801Z,28.67
2018-11-22T19:53:38.340Z,29.80
2018-11-22T19:56:06.912Z,28.35
2018-11-22T19:58:35.958Z,28.80
2018-11-22T20:01:07.670Z,27.80
2018-11-22T20:03:32.896Z,31.27
2018-11-22T20:06:01.478Z,32.10
2018-11-22T20:08:30.440Z,33.07
2018-11-22T20:10:59.108Z,30.43
2018-11-22T20:13:27.794Z,31.57
2018-11-22T20:15:56.370Z,26.73
2018-11-22T20:18:24.757Z,29.60
2018-11-22T20:20:53.190Z,29.67
2018-11-22T20:23:21.841Z,30.73
2018-11-22T20:25:49.789Z,28.33
2018-11-22T20:28:18.060Z,31.53
2018-11-22T20:30:46.656Z,30.35
2018-11-22T20:33:15.118Z,27.93
2018-11-22T20:35:43.609Z,30.77
2018-11-22T20:38:11.966Z,31.07
2018-11-22T20:40:40.304Z,29.50
2018-11-22T20:43:09.483Z,29.67
2018-11-22T20:45:41.031Z,30.23
2018-11-22T20:48:07.263Z,28.90
2018-11-22T20:50:36.788Z,28.07
2018-11-22T20:53:05.737Z,30.95
2018-11-22T20:55:36.428Z,30.10
2018-11-22T20:58:05.880Z,30.50
2018-11-22T21:00:35.846Z,30.90
2018-11-22T21:03:04.641Z,30.07
2018-11-22T21:05:33.129Z,29.60
2018-11-22T21:08:01.428Z,29.97
2018-11-22T21:10:30.877Z,30.02
2018-11-22T21:12:59.157Z,28.27
2018-11-22T21:15:28.650Z,28.90
2018-11-22T21:17:59.420Z,30.90
2018-11-22T21:20:29.891Z,29.45
2018-11-22T21:22:58.186Z,31.50
2018-11-22T21:25:26.884Z,30.08
2018-11-22T21:27:55.168Z,29.73
2018-11-22T21:30:27.877Z,29.30
2018-11-22T21:32:57.427Z,29.20
2018-11-22T21:35:26.078Z,31.90
2018-11-22T21:37:55.794Z,31.57
2018-11-22T21:40:24.868Z,29.70
2018-11-22T21:42:53.728Z,28.30
2018-11-22T21:45:23.412Z,24.37
2018-11-22T21:47:51.914Z,28.13
2018-11-22T21:50:21.474Z,27.23
2018-11-22T21:52:49.776Z,29.17
2018-11-22T21:55:20.212Z,25.43
2018-11-22T21:57:49.213Z,25.50
2018-11-22T22:00:20.136Z,25.63
2018-11-22T22:02:52.627Z,23.83
2018-11-22T22:05:18.801Z,24.75
2018-11-22T22:07:47.104Z,26.47
2018-11-22T22:10:15.655Z,23.70
2018-11-22T22:12:44.542Z,24.20
2018-11-22T22:15:19.337Z,25.08
2018-11-22T22:17:47.999Z,26.17
2018-11-22T22:20:19.932Z,25.13
2018-11-22T22:22:48.212Z,27.30
2018-11-22T22:25:17.828Z,26.80
2018-11-22T22:27:46.556Z,25.67
2018-11-22T22:30:18.506Z,24.18
2018-11-22T22:32:47.875Z,24.63
2018-11-22T22:35:16.431Z,24.63
2018-11-22T22:37:45.089Z,26.63
2018-11-22T22:40:15.341Z,25.17
2018-11-22T22:42:44.965Z,25.85
2018-11-22T22:45:14.188Z,25.27
2018-11-22T22:47:43.097Z,27.70
2018-11-22T22:50:14.309Z,25.83
2018-11-22T22:52:43.183Z,25.60
2018-11-22T22:55:12.207Z,24.80
2018-11-22T22:57:41.196Z,28.47
2018-11-22T23:00:16.364Z,27.17
2018-11-22T23:02:44.908Z,25.63
2018-11-22T23:05:13.488Z,24.63
2018-11-22T23:07:42.050Z,25.88
2018-11-22T23:10:10.721Z,26.13
2018-11-22T23:12:39.305Z,26.75
2018-11-22T23:15:10.164Z,25.40
2018-11-22T23:17:38.849Z,26.50
2018-11-22T23:20:10.733Z,26.43
2018-11-22T23:22:39.929Z,25.82
2018-11-22T23:25:08.537Z,23.47
2018-11-22T23:27:37.228Z,27.03
2018-11-22T23:30:10.751Z,23.33
2018-11-22T23:32:39.165Z,22.10
2018-11-22T23:35:08.578Z,24.40
2018-11-22T23:37:36.997Z,22.97
2018-11-22T23:40:07.424Z,22.80
2018-11-22T23:42:36.042Z,24.23
2018-11-22T23:45:05.932Z,23.95
2018-11-22T23:47:34.272Z,22.10
2018-11-22T23:50:02.963Z,22.23
2018-11-22T23:52:31.242Z,22.10
2018-11-22T23:54:59.552Z,23.80
2018-11-22T23:57:28.112Z,22.80
2018-11-22T23:59:56.416Z,25.20
